CheckWX is a tool to help pilots better visualize weather data.  It is not intended as a substitute for an official pre-flight weather briefing.

08:50:50 UTC

KROG METAR
Rogers Executive - Carter Field Airport
Rogers, Arkansas, USA
Current

53 mins ago

KROG 120758Z AUTO 15005KT 10SM CLR 04/M06 A3032 RMK AO2 SLP270 T00441056
Observed
Dec-12 @ 07:58 UTC
Wind
  • 150° at 5 KTS
Visibility
10 SM
Flight Rules
VFR
Cloud Levels
  • Clear skies
Temperature
C / 39°F
Dewpoint
-6°C / 21°F
Humidity
48%
Altimeter
30.32" Hg
Pressure
1026.72 hPa
Previous

2 hours ago

KROG 120658Z AUTO 14007KT 10SM CLR 03/M05 A3033 RMK AO2 SLP275 T00331050
Observed
Dec-12 @ 06:58 UTC
Wind
  • 140° at 7 KTS
Visibility
10 SM
Flight Rules
VFR
Cloud Levels
  • Clear skies
Temperature
C / 37°F
Dewpoint
-5°C / 23°F
Humidity
56%
Altimeter
30.33" Hg
Pressure
1027.12 hPa
Previous

3 hours ago

KROG 120558Z AUTO 16005KT 10SM CLR 03/M04 A3036 RMK AO2 SLP284 T00281044 10067 20022 401111033 56001
Observed
Dec-12 @ 05:58 UTC
Wind
  • 160° at 5 KTS
Visibility
10 SM
Flight Rules
VFR
Cloud Levels
  • Clear skies
Temperature
C / 37°F
Dewpoint
-4°C / 25°F
Humidity
60%
Altimeter
30.36" Hg
Pressure
1028.12 hPa